Hlavní strana
METAR-TAF:

METAR-TAF

Letiště :

Suceava, Rumunsko

zeměpisná šířka: 47-39N, zeměpisná délka: 026-15E, výška: 351 m

Aktuální stav počasí

Zpráva byla vytvořena před 41 minutami, v 04:00 UTC
Severoseverozápadní vítr 12 kt
Teplota 9°C
Vlhkost vzduchu 87%
Tlak 1021 hPa
Viditelnost 10 km a více
Žádná oblačnost pod 1500 m, nevyskytují se cumulonimby.

METAR: LRSV 260400Z 33012KT CAVOK 09/07 Q1021

Čas: 07:41 (04:41 UTC)

Předpověď počasí

Zpráva byla vytvořena před 2 hodinami a 41 minutami, v 02:00 UTC
Předpověď platná od 26 v 03 UTC do 26 v 12 UTC
Severozápadní vítr 12 kt
Viditelnost 10 km a více
Žádná oblačnost pod 1500 m, nevyskytují se cumulonimby.
Změna
od 26 v 09 UTC do 26 v 11 UTC
Severoseverozápadní vítr 17 kt s nárazy do 27 kt
Dočasný
od 26 v 10 UTC do 26 v 12 UTC
Polojasno ve výšce 4000 ft, Cumulonimbus.

TAF: LRSV 260200Z 2603/2612 32012KT CAVOK BECMG 2609/2611 34017G27KT TEMPO 2610/2612 SCT040CB

Stav a předpovědi počasí z více než 4 000 letišť (zprávy METAR a TAF).

Červené a žluté tečky na mapě představují dostupné meteorologické stanice.

Když kurzor umístíte na tečku, zobrazí se název stanice.

Pak kliknutím zobrazíte stav a předpověď počasí.

Chcete-li změnit mapu, kliknutím na zelené tlačítko se znaménkem +mapu přiblížíte, kliknutím na zelené tlačítko se znaménkem – mapu oddálíte a kliknutím na zelené šipky přejdete na sousední mapy.


METAR-TAF: